Seaspan Saigon — VRBT7 — position and weather

sailwx.info

Track history (hours):
 
Tides and Currents Weather Stations Pressure Air Temp Water Temp Dewpoint Dewpoint Depression Visibility Wind Speed Wind Dir Waves Ship Positions

Seaspan Saigon

Last reported at 2017-Jun-26 09:00 UTC. Time now 2017-Jun-26 08:58 UTC.
Position N 36°08' W 005°25'.

Length 260 m; draft 7.9 m.

Type: Ship (hazmat cat A). MMSI: 477106800.

Date/timePositionNaut miles runAvg speedWind from/ knotsBaromVisibWave heightAir tempDewpointWater temp
2017-Jun-26 09:00N 36°08' W 005°25'0 0.0
2017-Jun-26 08:30N 36°08' W 005°25'0 0.0
2017-Jun-26 08:00N 36°08' W 005°25'0 0.0
2017-Jun-26 07:27N 36°08' W 005°25'0 0.1
2017-Jun-26 06:58N 36°08' W 005°25'1 2.2
2017-Jun-26 06:27N 36°08' W 005°24'2 5.0
2017-Jun-26 06:00N 36°06' W 005°23'1 1.4
2017-Jun-26 05:30N 36°05' W 005°22'3 5.0
2017-Jun-26 05:00N 36°04' W 005°20'4 8.0
2017-Jun-26 04:30N 36°02' W 005°16'5 9.0
2017-Jun-26 04:00N 36°01' W 005°10'1 1.0
2017-Jun-26 03:21N 36°01' W 005°09'1 2.6
2017-Jun-26 03:00N 36°01' W 005°10'2 2.5
2017-Jun-26 02:21N 36°01' W 005°12'1 2.4
2017-Jun-26 01:57N 36°01' W 005°14'1 2.3
2017-Jun-26 01:30N 36°01' W 005°15'1 1.9
2017-Jun-26 00:57N 36°02' W 005°16'2 4.1
2017-Jun-26 00:31N 36°02' W 005°14'6 9.4
2017-Jun-25 23:54N 36°00' W 005°07'2 1.5
2017-Jun-25 22:34N 36°00' W 005°10'0 1.4
2017-Jun-25 22:22N 36°00' W 005°10'1 1.8
2017-Jun-25 21:58N 36°00' W 005°11'1 2.8
2017-Jun-25 21:28N 36°00' W 005°12'1 2.8
2017-Jun-25 20:58N 36°00' W 005°14'1 2.3
2017-Jun-25 20:28N 36°01' W 005°16'1 2.5
2017-Jun-25 20:00N 36°01' W 005°14'2 4.3
2017-Jun-25 19:30N 36°01' W 005°11'1 1.1
2017-Jun-25 19:00N 36°01' W 005°12'1 1.4
2017-Jun-25 18:27N 36°01' W 005°13'1 1.6
2017-Jun-25 17:57N 36°01' W 005°14'1 1.5
2017-Jun-25 17:27N 36°01' W 005°15'1 1.4
2017-Jun-25 17:00N 36°00' W 005°15'1 1.1
2017-Jun-25 16:27N 36°00' W 005°16'0 0.8
2017-Jun-25 15:57N 36°00' W 005°17'0 0.5
2017-Jun-25 15:21N 36°00' W 005°17'0 0.8
2017-Jun-25 14:56N 36°00' W 005°17'1 1.7
2017-Jun-25 14:26N 35°60' W 005°18'7 7.5
2017-Jun-25 13:30N 35°57' W 005°26'4 0.2
2017-Jun-24 21:06N 35°54' W 005°30'2 1.6
2017-Jun-24 19:45N 35°55' W 005°32'1 0.3
2017-Jun-24 16:03N 35°54' W 005°33'2 0.2
2017-Jun-24 03:32N 35°53' W 005°35'0 0.0
2017-Jun-24 03:20N 35°53' W 005°35'0 0.0
2017-Jun-24 03:00N 35°53' W 005°35'0 0.1
2017-Jun-24 02:02N 35°53' W 005°35'0 0.2
2017-Jun-24 01:56N 35°53' W 005°35'0 0.0
2017-Jun-24 01:26N 35°53' W 005°35'0 0.1
2017-Jun-24 00:56N 35°53' W 005°35'0 0.0
2017-Jun-24 00:20N 35°53' W 005°35'0 0.1
2017-Jun-23 19:50N 35°53' W 005°34'0 0.3
2017-Jun-23 19:30N 35°53' W 005°34'4 5.3
2017-Jun-23 18:40N 35°56' W 005°31'1 8.5
2017-Jun-23 18:30N 35°58' W 005°31'3 7.0
2017-Jun-23 18:01N 35°60' W 005°27'4 8.3
2017-Jun-23 17:30N 36°01' W 005°22'5 9.6
2017-Jun-23 17:01N 36°02' W 005°16'510.5
2017-Jun-23 16:30N 36°04' W 005°10'611.8
2017-Jun-23 16:01N 36°06' W 005°03'611.8
2017-Jun-23 15:30N 36°07' W 004°56'612.0
2017-Jun-23 14:59N 36°08' W 004°49'10712.7
2017-Jun-23 06:35N 36°22' W 002°38'112.8
2017-Jun-23 06:30N 36°23' W 002°36'612.8
2017-Jun-23 06:00N 36°24' W 002°29'712.8
2017-Jun-23 05:30N 36°25' W 002°21'712.8
2017-Jun-23 04:58N 36°26' W 002°12'1412.7
2017-Jun-23 03:51N 36°29' W 001°55'612.5
2017-Jun-23 03:21N 36°30' W 001°48'412.7
2017-Jun-23 03:00N 36°31' W 001°42'812.6
2017-Jun-23 02:22N 36°33' W 001°32'2712.8
2017-Jun-23 00:13N 36°39' W 000°59'313.0
2017-Jun-22 23:58N 36°39' W 000°55'613.0
2017-Jun-22 23:30N 36°41' W 000°48'613.2
2017-Jun-22 23:01N 36°43' W 000°40'713.5
2017-Jun-22 22:30N 36°45' W 000°32'713.5
2017-Jun-22 22:00N 36°47' W 000°24'713.2
2017-Jun-22 21:27N 36°48' W 000°15'511.1
2017-Jun-22 21:00N 36°50' W 000°09'0 0.9
2017-Jun-22 20:30N 36°50' W 000°08'0 0.6
2017-Jun-22 20:01N 36°50' W 000°08'0 0.5
2017-Jun-22 19:30N 36°50' W 000°08'0 0.5
2017-Jun-22 19:00N 36°50' W 000°07'0 0.4
2017-Jun-22 18:30N 36°50' W 000°07'0 0.3
2017-Jun-22 18:00N 36°50' W 000°07'0 0.3
2017-Jun-22 17:30N 36°50' W 000°07'0 0.3
2017-Jun-22 17:01N 36°50' W 000°07'0 0.2
2017-Jun-22 16:30N 36°50' W 000°07'0 0.3
2017-Jun-22 16:00N 36°50' W 000°06'0 0.5
2017-Jun-22 15:30N 36°50' W 000°06'0 0.6
2017-Jun-22 15:00N 36°50' W 000°06'0 0.3
2017-Jun-22 14:30N 36°50' W 000°06'0 0.2
2017-Jun-22 13:30N 36°50' W 000°05'0 0.4
2017-Jun-22 13:01N 36°50' W 000°05'0 0.5
2017-Jun-22 12:31N 36°50' W 000°05'0 0.6
2017-Jun-22 12:01N 36°50' W 000°04'0 0.6
2017-Jun-22 11:30N 36°50' W 000°04'0 0.7
2017-Jun-22 11:00N 36°50' W 000°04'0 0.8
2017-Jun-22 10:31N 36°50' W 000°03'0 1.0
2017-Jun-22 10:01N 36°49' W 000°03'1 1.3
2017-Jun-22 09:30N 36°49' W 000°02'4 7.7
2017-Jun-22 09:01N 36°50' E 000°03'713.2
2017-Jun-22 08:31N 36°51' E 000°11'712.9
2017-Jun-22 08:00N 36°53' E 000°19'612.6
2017-Jun-22 07:30N 36°54' E 000°26'611.9
2017-Jun-22 07:01N 36°56' E 000°34'611.7
2017-Jun-22 06:30N 36°57' E 000°41'611.7
2017-Jun-22 06:00N 36°58' E 000°48'612.0
2017-Jun-22 05:31N 36°59' E 000°55'612.4
2017-Jun-22 05:00N 37°01' E 001°03'612.6
2017-Jun-22 04:30N 37°02' E 001°11'612.6
2017-Jun-22 04:00N 37°04' E 001°18'612.9
2017-Jun-22 03:30N 37°05' E 001°26'713.2
2017-Jun-22 03:00N 37°06' E 001°34'713.4
2017-Jun-22 02:30N 37°08' E 001°43'613.3
2017-Jun-22 02:01N 37°09' E 001°50'713.3
2017-Jun-22 01:30N 37°11' E 001°59'713.4
2017-Jun-22 01:01N 37°12' E 002°07'713.3
2017-Jun-22 00:30N 37°14' E 002°15'713.1
2017-Jun-22 00:00N 37°15' E 002°23'613.1
2017-Jun-21 23:30N 37°17' E 002°31'713.1
2017-Jun-21 23:00N 37°18' E 002°39'613.0
2017-Jun-21 22:31N 37°20' E 002°47'713.0
2017-Jun-21 21:59N 37°21' E 002°56'1513.2
2017-Jun-21 20:51N 37°24' E 003°14'513.2
2017-Jun-21 20:30N 37°25' E 003°20'713.4
2017-Jun-21 20:00N 37°27' E 003°28'713.6
2017-Jun-21 19:30N 37°28' E 003°36'713.6
2017-Jun-21 19:00N 37°30' E 003°45'713.4
2017-Jun-21 18:30N 37°31' E 003°53'713.2
2017-Jun-21 18:00N 37°33' E 004°01'713.0
2017-Jun-21 17:29N 37°34' E 004°09'613.0
2017-Jun-21 17:00N 37°36' E 004°17'713.0
2017-Jun-21 16:29N 37°37' E 004°25'10112.9
2017-Jun-21 08:41N 37°59' E 006°30'9313.1
2017-Jun-21 01:36N 38°24' E 008°23'213.2
2017-Jun-21 01:26N 38°24' E 008°26'613.3
2017-Jun-21 01:00N 38°26' E 008°33'1313.0
2017-Jun-20 23:58N 38°33' E 008°47'713.2
2017-Jun-20 23:25N 38°39' E 008°54'513.3
2017-Jun-20 23:00N 38°43' E 008°57'713.1
2017-Jun-20 22:29N 38°49' E 009°01'613.0
2017-Jun-20 22:00N 38°55' E 009°05'612.6
2017-Jun-20 21:30N 39°00' E 009°09'612.5
2017-Jun-20 21:00N 39°07' E 009°07'4 9.0
2017-Jun-20 20:30N 39°11' E 009°06'3 5.3
2017-Jun-20 20:00N 39°13' E 009°04'0 0.0
2017-Jun-20 19:30N 39°13' E 009°04'0 0.0
2017-Jun-20 19:00N 39°13' E 009°04'0 0.0
2017-Jun-20 18:30N 39°13' E 009°04'0 0.0
2017-Jun-20 18:00N 39°13' E 009°04'0 0.0
2017-Jun-20 17:27N 39°13' E 009°04'0 0.0
2017-Jun-20 17:00N 39°13' E 009°04'0 0.0
2017-Jun-20 16:30N 39°13' E 009°04'0 0.0
2017-Jun-20 16:00N 39°13' E 009°04'0 0.0
2017-Jun-20 15:30N 39°13' E 009°04'0 0.0
2017-Jun-20 15:00N 39°13' E 009°04'0 0.0
2017-Jun-20 14:00N 39°13' E 009°04'0 0.0
2017-Jun-20 13:30N 39°13' E 009°04'0 0.0
2017-Jun-20 13:00N 39°13' E 009°04'0 0.0
2017-Jun-20 12:30N 39°13' E 009°04'0 0.0
2017-Jun-20 12:00N 39°13' E 009°04'0 0.0
2017-Jun-20 11:30N 39°13' E 009°04'0 0.0
2017-Jun-20 11:00N 39°13' E 009°04'0 0.0
2017-Jun-20 10:30N 39°13' E 009°04'0 0.0
2017-Jun-20 10:00N 39°13' E 009°04'0 0.0
2017-Jun-20 09:30N 39°13' E 009°04'0 0.0
2017-Jun-20 09:00N 39°13' E 009°04'0 0.0
2017-Jun-20 08:30N 39°13' E 009°04'0 0.0
2017-Jun-20 08:00N 39°13' E 009°04'0 0.0
2017-Jun-20 07:30N 39°13' E 009°04'0 0.0
2017-Jun-20 07:00N 39°13' E 009°04'0 0.0
2017-Jun-20 06:30N 39°13' E 009°04'0 0.0
2017-Jun-20 06:00N 39°13' E 009°04'0 0.0
2017-Jun-20 05:30N 39°13' E 009°04'0 0.0
2017-Jun-20 05:00N 39°13' E 009°04'0 0.0
2017-Jun-20 04:30N 39°13' E 009°04'0 0.0
2017-Jun-20 04:00N 39°13' E 009°04'1 2.2
2017-Jun-20 03:30N 39°12' E 009°05'3 6.0
2017-Jun-20 03:00N 39°09' E 009°06'4 8.0
2017-Jun-20 02:30N 39°06' E 009°08'4 8.6
2017-Jun-20 02:00N 39°01' E 009°09'714.3
2017-Jun-20 01:30N 38°55' E 009°06'714.6
2017-Jun-20 01:00N 38°48' E 009°01'714.5
2017-Jun-20 00:30N 38°42' E 008°57'713.4
2017-Jun-20 00:00N 38°37' E 008°51'714.9
2017-Jun-19 23:30N 38°37' E 008°42'915.3
2017-Jun-19 22:53N 38°38' E 008°30'12615.3
2017-Jun-19 14:39N 38°46' E 005°49'3015.0
2017-Jun-19 12:39N 38°49' E 005°11'1915.3
2017-Jun-19 11:25N 38°49' E 004°47'715.5
2017-Jun-19 11:00N 38°49' E 004°38'815.6
2017-Jun-19 10:30N 38°50' E 004°28'816.1
2017-Jun-19 10:00N 38°48' E 004°18'2547.9 230 / 261020.010.8 30.027.325.0
2017-Jun-19 09:59N 38°50' E 004°18'816.0
2017-Jun-19 09:30N 38°51' E 004°08'816.0
2017-Jun-19 09:00N 38°52' E 003°58'816.0
2017-Jun-19 08:30N 38°52' E 003°47'815.9
2017-Jun-19 08:00N 38°53' E 003°37'815.8
2017-Jun-19 07:30N 38°54' E 003°27'815.7
2017-Jun-19 07:00N 38°54' E 003°17'815.8
2017-Jun-19 06:30N 38°55' E 003°07'815.7
2017-Jun-19 06:00N 38°57' E 002°57'815.7
2017-Jun-19 05:30N 38°58' E 002°47'815.4
2017-Jun-19 05:00N 38°59' E 002°37'815.5
2017-Jun-19 04:30N 39°03' E 002°29'815.6
2017-Jun-19 04:00N 39°08' E 002°21'815.5
2017-Jun-19 03:30N 39°13' E 002°13'815.7
2017-Jun-19 03:00N 39°18' E 002°05'815.4
2017-Jun-19 02:30N 39°22' E 001°57'816.1
2017-Jun-19 02:00N 39°22' E 001°47'816.3
2017-Jun-19 01:30N 39°23' E 001°36'816.2
2017-Jun-19 01:00N 39°23' E 001°26'816.2
2017-Jun-19 00:30N 39°23' E 001°15'2316.3
2017-Jun-18 23:04N 39°23' E 000°45'216.4
2017-Jun-18 22:58N 39°24' E 000°43'76 2.0
2017-Jun-17 10:00N 38°18' W 000°06'1012.2 190 / 301020.010.8 23.016.521.0
2017-Jun-17 09:11N 38°09' W 000°01'315.8
2017-Jun-17 09:00N 38°07' W 000°03'915.9
2017-Jun-17 08:25N 37°59' W 000°09'615.8
2017-Jun-17 08:00N 37°53' W 000°14'816.0
2017-Jun-17 07:30N 37°47' W 000°19'816.1
2017-Jun-17 07:00N 37°40' W 000°25'816.2
2017-Jun-17 06:30N 37°33' W 000°31'816.0
2017-Jun-17 06:00N 37°28' W 000°38'816.0
2017-Jun-17 05:30N 37°23' W 000°46'816.1
2017-Jun-17 04:59N 37°17' W 000°54'816.3
2017-Jun-17 04:30N 37°12' W 001°01'815.9
2017-Jun-17 04:00N 37°07' W 001°08'815.8
2017-Jun-17 03:30N 37°01' W 001°16'815.7
2017-Jun-17 03:00N 36°56' W 001°23'815.4
2017-Jun-17 02:30N 36°51' W 001°30'815.7
2017-Jun-17 02:00N 36°46' W 001°37'1015.8
2017-Jun-17 01:24N 36°39' W 001°46'1016.1
2017-Jun-17 00:47N 36°33' W 001°56'916.1
2017-Jun-17 00:14N 36°27' W 002°04'15216.2
2017-Jun-16 14:49N 36°01' W 005°10'516.4
2017-Jun-16 14:30N 36°00' W 005°16'5515.8
2017-Jun-16 11:00N 35°54' W 006°24'2415.3 210 / 301015.0 5.4 23.021.521.0
2017-Jun-16 09:27N 35°54' W 006°53'715.6
2017-Jun-16 08:58N 35°54' W 007°02'715.7
2017-Jun-16 08:30N 35°54' W 007°11'  
Track history (hours):
 
Tides and Currents Weather Stations Pressure Air Temp Water Temp Dewpoint Dewpoint Depression Visibility Wind Speed Wind Dir Waves Ship Positions

Seaspan Saigon

Last reported at 2017-Jun-26 09:00 UTC. Time now 2017-Jun-26 08:58 UTC.
Position N 36°08' W 005°25'.

Length 260 m; draft 7.9 m.

Type: Ship (hazmat cat A). MMSI: 477106800.

Date/timePositionNaut miles runAvg speedWind from/ knotsBaromVisibWave heightAir tempDewpointWater temp
2017-Jun-26 09:00N 36°08' W 005°25'0 0.0
2017-Jun-26 08:30N 36°08' W 005°25'0 0.0
2017-Jun-26 08:00N 36°08' W 005°25'0 0.0
2017-Jun-26 07:27N 36°08' W 005°25'0 0.1
2017-Jun-26 06:58N 36°08' W 005°25'1 2.2
2017-Jun-26 06:27N 36°08' W 005°24'2 5.0
2017-Jun-26 06:00N 36°06' W 005°23'1 1.4
2017-Jun-26 05:30N 36°05' W 005°22'3 5.0
2017-Jun-26 05:00N 36°04' W 005°20'4 8.0
2017-Jun-26 04:30N 36°02' W 005°16'5 9.0
2017-Jun-26 04:00N 36°01' W 005°10'1 1.0
2017-Jun-26 03:21N 36°01' W 005°09'1 2.6
2017-Jun-26 03:00N 36°01' W 005°10'2 2.5
2017-Jun-26 02:21N 36°01' W 005°12'1 2.4
2017-Jun-26 01:57N 36°01' W 005°14'1 2.3
2017-Jun-26 01:30N 36°01' W 005°15'1 1.9
2017-Jun-26 00:57N 36°02' W 005°16'2 4.1
2017-Jun-26 00:31N 36°02' W 005°14'6 9.4
2017-Jun-25 23:54N 36°00' W 005°07'2 1.5
2017-Jun-25 22:34N 36°00' W 005°10'0 1.4
2017-Jun-25 22:22N 36°00' W 005°10'1 1.8
2017-Jun-25 21:58N 36°00' W 005°11'1 2.8
2017-Jun-25 21:28N 36°00' W 005°12'1 2.8
2017-Jun-25 20:58N 36°00' W 005°14'1 2.3
2017-Jun-25 20:28N 36°01' W 005°16'1 2.5
2017-Jun-25 20:00N 36°01' W 005°14'2 4.3
2017-Jun-25 19:30N 36°01' W 005°11'1 1.1
2017-Jun-25 19:00N 36°01' W 005°12'1 1.4
2017-Jun-25 18:27N 36°01' W 005°13'1 1.6
2017-Jun-25 17:57N 36°01' W 005°14'1 1.5
2017-Jun-25 17:27N 36°01' W 005°15'1 1.4
2017-Jun-25 17:00N 36°00' W 005°15'1 1.1
2017-Jun-25 16:27N 36°00' W 005°16'0 0.8
2017-Jun-25 15:57N 36°00' W 005°17'0 0.5
2017-Jun-25 15:21N 36°00' W 005°17'0 0.8
2017-Jun-25 14:56N 36°00' W 005°17'1 1.7
2017-Jun-25 14:26N 35°60' W 005°18'7 7.5
2017-Jun-25 13:30N 35°57' W 005°26'4 0.2
2017-Jun-24 21:06N 35°54' W 005°30'2 1.6
2017-Jun-24 19:45N 35°55' W 005°32'1 0.3
2017-Jun-24 16:03N 35°54' W 005°33'2 0.2
2017-Jun-24 03:32N 35°53' W 005°35'0 0.0
2017-Jun-24 03:20N 35°53' W 005°35'0 0.0
2017-Jun-24 03:00N 35°53' W 005°35'0 0.1
2017-Jun-24 02:02N 35°53' W 005°35'0 0.2
2017-Jun-24 01:56N 35°53' W 005°35'0 0.0
2017-Jun-24 01:26N 35°53' W 005°35'0 0.1
2017-Jun-24 00:56N 35°53' W 005°35'0 0.0
2017-Jun-24 00:20N 35°53' W 005°35'0 0.1
2017-Jun-23 19:50N 35°53' W 005°34'0 0.3
2017-Jun-23 19:30N 35°53' W 005°34'4 5.3
2017-Jun-23 18:40N 35°56' W 005°31'1 8.5
2017-Jun-23 18:30N 35°58' W 005°31'3 7.0
2017-Jun-23 18:01N 35°60' W 005°27'4 8.3
2017-Jun-23 17:30N 36°01' W 005°22'5 9.6
2017-Jun-23 17:01N 36°02' W 005°16'510.5
2017-Jun-23 16:30N 36°04' W 005°10'611.8
2017-Jun-23 16:01N 36°06' W 005°03'611.8
2017-Jun-23 15:30N 36°07' W 004°56'612.0
2017-Jun-23 14:59N 36°08' W 004°49'10712.7
2017-Jun-23 06:35N 36°22' W 002°38'112.8
2017-Jun-23 06:30N 36°23' W 002°36'612.8
2017-Jun-23 06:00N 36°24' W 002°29'712.8
2017-Jun-23 05:30N 36°25' W 002°21'712.8
2017-Jun-23 04:58N 36°26' W 002°12'1412.7
2017-Jun-23 03:51N 36°29' W 001°55'612.5
2017-Jun-23 03:21N 36°30' W 001°48'412.7
2017-Jun-23 03:00N 36°31' W 001°42'812.6
2017-Jun-23 02:22N 36°33' W 001°32'2712.8
2017-Jun-23 00:13N 36°39' W 000°59'313.0
2017-Jun-22 23:58N 36°39' W 000°55'613.0
2017-Jun-22 23:30N 36°41' W 000°48'613.2
2017-Jun-22 23:01N 36°43' W 000°40'713.5
2017-Jun-22 22:30N 36°45' W 000°32'713.5
2017-Jun-22 22:00N 36°47' W 000°24'713.2
2017-Jun-22 21:27N 36°48' W 000°15'511.1
2017-Jun-22 21:00N 36°50' W 000°09'0 0.9
2017-Jun-22 20:30N 36°50' W 000°08'0 0.6
2017-Jun-22 20:01N 36°50' W 000°08'0 0.5
2017-Jun-22 19:30N 36°50' W 000°08'0 0.5
2017-Jun-22 19:00N 36°50' W 000°07'0 0.4
2017-Jun-22 18:30N 36°50' W 000°07'0 0.3
2017-Jun-22 18:00N 36°50' W 000°07'0 0.3
2017-Jun-22 17:30N 36°50' W 000°07'0 0.3
2017-Jun-22 17:01N 36°50' W 000°07'0 0.2
2017-Jun-22 16:30N 36°50' W 000°07'0 0.3
2017-Jun-22 16:00N 36°50' W 000°06'0 0.5
2017-Jun-22 15:30N 36°50' W 000°06'0 0.6
2017-Jun-22 15:00N 36°50' W 000°06'0 0.3
2017-Jun-22 14:30N 36°50' W 000°06'0 0.2
2017-Jun-22 13:30N 36°50' W 000°05'0 0.4
2017-Jun-22 13:01N 36°50' W 000°05'0 0.5
2017-Jun-22 12:31N 36°50' W 000°05'0 0.6
2017-Jun-22 12:01N 36°50' W 000°04'0 0.6
2017-Jun-22 11:30N 36°50' W 000°04'0 0.7
2017-Jun-22 11:00N 36°50' W 000°04'0 0.8
2017-Jun-22 10:31N 36°50' W 000°03'0 1.0
2017-Jun-22 10:01N 36°49' W 000°03'1 1.3
2017-Jun-22 09:30N 36°49' W 000°02'4 7.7
2017-Jun-22 09:01N 36°50' E 000°03'713.2
2017-Jun-22 08:31N 36°51' E 000°11'712.9
2017-Jun-22 08:00N 36°53' E 000°19'612.6
2017-Jun-22 07:30N 36°54' E 000°26'611.9
2017-Jun-22 07:01N 36°56' E 000°34'611.7
2017-Jun-22 06:30N 36°57' E 000°41'611.7
2017-Jun-22 06:00N 36°58' E 000°48'612.0
2017-Jun-22 05:31N 36°59' E 000°55'612.4
2017-Jun-22 05:00N 37°01' E 001°03'612.6
2017-Jun-22 04:30N 37°02' E 001°11'612.6
2017-Jun-22 04:00N 37°04' E 001°18'612.9
2017-Jun-22 03:30N 37°05' E 001°26'713.2
2017-Jun-22 03:00N 37°06' E 001°34'713.4
2017-Jun-22 02:30N 37°08' E 001°43'613.3
2017-Jun-22 02:01N 37°09' E 001°50'713.3
2017-Jun-22 01:30N 37°11' E 001°59'713.4
2017-Jun-22 01:01N 37°12' E 002°07'713.3
2017-Jun-22 00:30N 37°14' E 002°15'713.1
2017-Jun-22 00:00N 37°15' E 002°23'613.1
2017-Jun-21 23:30N 37°17' E 002°31'713.1
2017-Jun-21 23:00N 37°18' E 002°39'613.0
2017-Jun-21 22:31N 37°20' E 002°47'713.0
2017-Jun-21 21:59N 37°21' E 002°56'1513.2
2017-Jun-21 20:51N 37°24' E 003°14'513.2
2017-Jun-21 20:30N 37°25' E 003°20'713.4
2017-Jun-21 20:00N 37°27' E 003°28'713.6
2017-Jun-21 19:30N 37°28' E 003°36'713.6
2017-Jun-21 19:00N 37°30' E 003°45'713.4
2017-Jun-21 18:30N 37°31' E 003°53'713.2
2017-Jun-21 18:00N 37°33' E 004°01'713.0
2017-Jun-21 17:29N 37°34' E 004°09'613.0
2017-Jun-21 17:00N 37°36' E 004°17'713.0
2017-Jun-21 16:29N 37°37' E 004°25'10112.9
2017-Jun-21 08:41N 37°59' E 006°30'9313.1
2017-Jun-21 01:36N 38°24' E 008°23'213.2
2017-Jun-21 01:26N 38°24' E 008°26'613.3
2017-Jun-21 01:00N 38°26' E 008°33'1313.0
2017-Jun-20 23:58N 38°33' E 008°47'713.2
2017-Jun-20 23:25N 38°39' E 008°54'513.3
2017-Jun-20 23:00N 38°43' E 008°57'713.1
2017-Jun-20 22:29N 38°49' E 009°01'613.0
2017-Jun-20 22:00N 38°55' E 009°05'612.6
2017-Jun-20 21:30N 39°00' E 009°09'612.5
2017-Jun-20 21:00N 39°07' E 009°07'4 9.0
2017-Jun-20 20:30N 39°11' E 009°06'3 5.3
2017-Jun-20 20:00N 39°13' E 009°04'0 0.0
2017-Jun-20 19:30N 39°13' E 009°04'0 0.0
2017-Jun-20 19:00N 39°13' E 009°04'0 0.0
2017-Jun-20 18:30N 39°13' E 009°04'0 0.0
2017-Jun-20 18:00N 39°13' E 009°04'0 0.0
2017-Jun-20 17:27N 39°13' E 009°04'0 0.0
2017-Jun-20 17:00N 39°13' E 009°04'0 0.0
2017-Jun-20 16:30N 39°13' E 009°04'0 0.0
2017-Jun-20 16:00N 39°13' E 009°04'0 0.0
2017-Jun-20 15:30N 39°13' E 009°04'0 0.0
2017-Jun-20 15:00N 39°13' E 009°04'0 0.0
2017-Jun-20 14:00N 39°13' E 009°04'0 0.0
2017-Jun-20 13:30N 39°13' E 009°04'0 0.0
2017-Jun-20 13:00N 39°13' E 009°04'0 0.0
2017-Jun-20 12:30N 39°13' E 009°04'0 0.0
2017-Jun-20 12:00N 39°13' E 009°04'0 0.0
2017-Jun-20 11:30N 39°13' E 009°04'0 0.0
2017-Jun-20 11:00N 39°13' E 009°04'0 0.0
2017-Jun-20 10:30N 39°13' E 009°04'0 0.0
2017-Jun-20 10:00N 39°13' E 009°04'0 0.0
2017-Jun-20 09:30N 39°13' E 009°04'0 0.0
2017-Jun-20 09:00N 39°13' E 009°04'0 0.0
2017-Jun-20 08:30N 39°13' E 009°04'0 0.0
2017-Jun-20 08:00N 39°13' E 009°04'0 0.0
2017-Jun-20 07:30N 39°13' E 009°04'0 0.0
2017-Jun-20 07:00N 39°13' E 009°04'0 0.0
2017-Jun-20 06:30N 39°13' E 009°04'0 0.0
2017-Jun-20 06:00N 39°13' E 009°04'0 0.0
2017-Jun-20 05:30N 39°13' E 009°04'0 0.0
2017-Jun-20 05:00N 39°13' E 009°04'0 0.0
2017-Jun-20 04:30N 39°13' E 009°04'0 0.0
2017-Jun-20 04:00N 39°13' E 009°04'1 2.2
2017-Jun-20 03:30N 39°12' E 009°05'3 6.0
2017-Jun-20 03:00N 39°09' E 009°06'4 8.0
2017-Jun-20 02:30N 39°06' E 009°08'4 8.6
2017-Jun-20 02:00N 39°01' E 009°09'714.3
2017-Jun-20 01:30N 38°55' E 009°06'714.6
2017-Jun-20 01:00N 38°48' E 009°01'714.5
2017-Jun-20 00:30N 38°42' E 008°57'713.4
2017-Jun-20 00:00N 38°37' E 008°51'714.9
2017-Jun-19 23:30N 38°37' E 008°42'915.3
2017-Jun-19 22:53N 38°38' E 008°30'12615.3
2017-Jun-19 14:39N 38°46' E 005°49'3015.0
2017-Jun-19 12:39N 38°49' E 005°11'1915.3
2017-Jun-19 11:25N 38°49' E 004°47'715.5
2017-Jun-19 11:00N 38°49' E 004°38'815.6
2017-Jun-19 10:30N 38°50' E 004°28'816.1
2017-Jun-19 10:00N 38°48' E 004°18'2547.9 230 / 261020.010.8 30.027.325.0
2017-Jun-19 09:59N 38°50' E 004°18'816.0
2017-Jun-19 09:30N 38°51' E 004°08'816.0
2017-Jun-19 09:00N 38°52' E 003°58'816.0
2017-Jun-19 08:30N 38°52' E 003°47'815.9
2017-Jun-19 08:00N 38°53' E 003°37'815.8
2017-Jun-19 07:30N 38°54' E 003°27'815.7
2017-Jun-19 07:00N 38°54' E 003°17'815.8
2017-Jun-19 06:30N 38°55' E 003°07'815.7
2017-Jun-19 06:00N 38°57' E 002°57'815.7
2017-Jun-19 05:30N 38°58' E 002°47'815.4
2017-Jun-19 05:00N 38°59' E 002°37'815.5
2017-Jun-19 04:30N 39°03' E 002°29'815.6
2017-Jun-19 04:00N 39°08' E 002°21'815.5
2017-Jun-19 03:30N 39°13' E 002°13'815.7
2017-Jun-19 03:00N 39°18' E 002°05'815.4
2017-Jun-19 02:30N 39°22' E 001°57'816.1
2017-Jun-19 02:00N 39°22' E 001°47'816.3
2017-Jun-19 01:30N 39°23' E 001°36'816.2
2017-Jun-19 01:00N 39°23' E 001°26'816.2
2017-Jun-19 00:30N 39°23' E 001°15'2316.3
2017-Jun-18 23:04N 39°23' E 000°45'216.4
2017-Jun-18 22:58N 39°24' E 000°43'76 2.0
2017-Jun-17 10:00N 38°18' W 000°06'1012.2 190 / 301020.010.8 23.016.521.0
2017-Jun-17 09:11N 38°09' W 000°01'315.8
2017-Jun-17 09:00N 38°07' W 000°03'915.9
2017-Jun-17 08:25N 37°59' W 000°09'615.8
2017-Jun-17 08:00N 37°53' W 000°14'816.0
2017-Jun-17 07:30N 37°47' W 000°19'816.1
2017-Jun-17 07:00N 37°40' W 000°25'816.2
2017-Jun-17 06:30N 37°33' W 000°31'816.0
2017-Jun-17 06:00N 37°28' W 000°38'816.0
2017-Jun-17 05:30N 37°23' W 000°46'816.1
2017-Jun-17 04:59N 37°17' W 000°54'816.3
2017-Jun-17 04:30N 37°12' W 001°01'815.9
2017-Jun-17 04:00N 37°07' W 001°08'815.8
2017-Jun-17 03:30N 37°01' W 001°16'815.7
2017-Jun-17 03:00N 36°56' W 001°23'815.4
2017-Jun-17 02:30N 36°51' W 001°30'815.7
2017-Jun-17 02:00N 36°46' W 001°37'1015.8
2017-Jun-17 01:24N 36°39' W 001°46'1016.1
2017-Jun-17 00:47N 36°33' W 001°56'916.1
2017-Jun-17 00:14N 36°27' W 002°04'15216.2
2017-Jun-16 14:49N 36°01' W 005°10'516.4
2017-Jun-16 14:30N 36°00' W 005°16'5515.8
2017-Jun-16 11:00N 35°54' W 006°24'2415.3 210 / 301015.0 5.4 23.021.521.0
2017-Jun-16 09:27N 35°54' W 006°53'715.6
2017-Jun-16 08:58N 35°54' W 007°02'715.7
2017-Jun-16 08:30N 35°54' W 007°11'  

Dump ship's entire track history